Time;durP1;ratioP1;P1;durP2;ratioP2;P2;SDS_P1;SDS_P2;PMS_P1;PMS_P2;Temp;Humidity;BMP_temperature;BMP_pressure;BME280_temperature;BME280_humidity;BME280_pressure;Samples;Min_cycle;Max_cycle;Signal;HPM_P1;HPM_P2
2022/03/31 00:02:08;;;;;;;18.00;10.00;;;7.30;99.90;;;;;;5115193;28;20185;-46
2022/03/31 00:04:34;;;;;;;20.37;10.97;;;7.30;99.90;;;;;;5115177;28;20264;-49
2022/03/31 00:07:00;;;;;;;20.50;10.27;;;7.30;99.90;;;;;;5115055;28;20191;-46
2022/03/31 00:09:25;;;;;;;18.63;9.63;;;7.30;99.90;;;;;;5115058;28;20178;-45
2022/03/31 00:11:51;;;;;;;18.00;11.17;;;7.30;99.90;;;;;;5114849;28;20217;-47
2022/03/31 00:14:17;;;;;;;20.43;10.93;;;7.30;99.90;;;;;;5115381;28;20170;-45
2022/03/31 00:16:42;;;;;;;17.23;10.67;;;7.20;99.90;;;;;;5115055;28;20190;-50
2022/03/31 00:19:08;;;;;;;17.03;10.30;;;7.20;99.90;;;;;;5115175;28;20175;-48
2022/03/31 00:21:34;;;;;;;16.60;10.50;;;7.20;99.90;;;;;;5115087;28;20252;-46
2022/03/31 00:23:59;;;;;;;17.93;10.63;;;7.20;99.90;;;;;;5115117;28;20628;-46
2022/03/31 00:26:25;;;;;;;23.23;10.77;;;7.20;99.90;;;;;;5115011;28;20247;-46
2022/03/31 00:28:50;;;;;;;17.97;10.13;;;7.20;99.90;;;;;;5114701;28;20178;-48
2022/03/31 00:31:16;;;;;;;18.87;10.90;;;7.20;99.90;;;;;;5114527;28;20179;-47
2022/03/31 00:33:42;;;;;;;22.80;11.10;;;7.20;99.90;;;;;;5114808;28;20294;-47
2022/03/31 00:36:07;;;;;;;20.03;10.60;;;7.10;99.90;;;;;;5114851;28;20557;-49
2022/03/31 00:38:33;;;;;;;17.63;10.40;;;7.10;99.90;;;;;;5114424;28;20178;-48
2022/03/31 00:40:58;;;;;;;18.40;11.70;;;7.10;99.90;;;;;;5114769;28;20187;-47
2022/03/31 00:43:24;;;;;;;14.20;10.73;;;7.00;99.90;;;;;;5114579;28;20205;-50
2022/03/31 00:45:53;;;;;;;13.30;10.13;;;7.00;99.90;;;;;;5114320;28;20208;-48
2022/03/31 00:48:19;;;;;;;18.30;10.47;;;7.00;99.90;;;;;;5114657;28;20229;-46
2022/03/31 00:50:45;;;;;;;18.03;11.77;;;7.00;99.90;;;;;;5114313;28;20208;-46
2022/03/31 00:53:11;;;;;;;17.17;10.93;;;6.90;99.90;;;;;;5114210;28;20209;-46
2022/03/31 00:55:37;;;;;;;18.47;11.40;;;6.90;99.90;;;;;;5114736;28;20214;-47
2022/03/31 00:58:04;;;;;;;18.43;12.43;;;6.90;99.90;;;;;;5114287;28;20584;-47
2022/03/31 01:00:30;;;;;;;18.70;11.23;;;6.90;99.90;;;;;;5114727;28;20623;-47
2022/03/31 01:02:55;;;;;;;13.80;10.80;;;6.90;99.90;;;;;;5115580;28;20213;-46
2022/03/31 01:05:21;;;;;;;15.90;11.23;;;6.80;99.90;;;;;;5116402;28;20288;-47
2022/03/31 01:07:47;;;;;;;17.27;11.13;;;6.80;99.90;;;;;;5117435;28;20185;-48
2022/03/31 01:10:14;;;;;;;15.13;11.37;;;6.80;99.90;;;;;;5114827;28;20196;-47
2022/03/31 01:12:40;;;;;;;15.87;11.43;;;6.80;99.90;;;;;;5113953;28;20260;-46
2022/03/31 01:15:16;;;;;;;19.90;12.67;;;6.80;99.90;;;;;;5114218;28;20367;-45
2022/03/31 01:17:43;;;;;;;15.83;10.53;;;6.70;99.90;;;;;;5095597;28;20183;-48
2022/03/31 01:20:12;;;;;;;17.37;11.40;;;6.70;99.90;;;;;;5113837;28;20229;-46
2022/03/31 01:22:38;;;;;;;15.70;11.83;;;6.70;99.90;;;;;;5113913;28;20222;-48
2022/03/31 01:25:07;;;;;;;15.27;11.23;;;6.70;99.90;;;;;;5113754;28;20272;-47
2022/03/31 01:27:39;;;;;;;15.53;11.10;;;6.70;99.90;;;;;;5114088;28;20307;-46
2022/03/31 01:30:09;;;;;;;18.83;12.13;;;6.70;99.90;;;;;;5114047;28;20189;-46
2022/03/31 01:32:36;;;;;;;19.33;11.47;;;6.70;99.90;;;;;;5113586;28;20209;-46
2022/03/31 01:35:03;;;;;;;18.87;12.33;;;6.70;99.90;;;;;;5113827;28;20535;-46
2022/03/31 01:37:29;;;;;;;20.53;12.33;;;6.70;99.90;;;;;;5113844;28;20543;-48
2022/03/31 01:39:55;;;;;;;15.60;10.50;;;6.70;99.90;;;;;;5113735;28;20175;-47
2022/03/31 01:42:22;;;;;;;20.23;12.53;;;6.70;99.90;;;;;;5115116;28;20178;-49
2022/03/31 01:44:48;;;;;;;17.60;11.60;;;6.70;99.90;;;;;;5117886;28;20666;-47
2022/03/31 01:47:14;;;;;;;19.40;11.40;;;6.70;99.90;;;;;;5118083;28;20259;-48
2022/03/31 01:49:39;;;;;;;18.90;11.13;;;6.70;99.90;;;;;;5118129;28;20182;-48
2022/03/31 01:52:06;;;;;;;17.90;12.27;;;6.60;99.90;;;;;;5117949;28;20608;-48
2022/03/31 01:54:32;;;;;;;18.17;11.87;;;6.60;99.90;;;;;;5117779;28;20697;-46
2022/03/31 01:56:57;;;;;;;17.00;12.17;;;6.60;99.90;;;;;;5117705;28;20651;-48
2022/03/31 01:59:30;;;;;;;22.27;12.20;;;6.60;99.90;;;;;;5117958;28;20253;-48
2022/03/31 02:01:56;;;;;;;18.53;12.73;;;6.50;99.90;;;;;;5117627;28;20171;-48
2022/03/31 02:04:21;;;;;;;19.03;12.87;;;6.50;99.90;;;;;;5117632;28;20181;-48
2022/03/31 02:06:47;;;;;;;19.47;12.03;;;6.50;99.90;;;;;;5117614;28;20635;-47
2022/03/31 02:09:12;;;;;;;17.03;11.03;;;6.40;99.90;;;;;;5117435;28;20182;-46
2022/03/31 02:11:38;;;;;;;21.17;12.00;;;6.40;99.90;;;;;;5117353;28;20326;-47
2022/03/31 02:14:04;;;;;;;22.90;12.63;;;6.40;99.90;;;;;;5117439;28;20177;-48
2022/03/31 02:16:29;;;;;;;16.37;11.30;;;6.30;99.90;;;;;;5117264;28;20223;-47
2022/03/31 02:18:55;;;;;;;26.47;14.27;;;6.30;99.90;;;;;;5117464;28;20537;-47
2022/03/31 02:21:20;;;;;;;16.63;11.83;;;6.30;99.90;;;;;;5117959;28;20173;-46
2022/03/31 02:23:47;;;;;;;15.83;11.73;;;6.20;99.90;;;;;;5117128;28;20360;-47
2022/03/31 02:26:12;;;;;;;19.13;11.83;;;6.20;99.90;;;;;;5117056;28;20205;-47
2022/03/31 02:28:39;;;;;;;20.10;13.10;;;6.20;99.90;;;;;;5117371;28;20175;-47
2022/03/31 02:31:04;;;;;;;21.17;12.60;;;6.20;99.90;;;;;;5117254;28;20515;-48
2022/03/31 02:33:30;;;;;;;20.57;13.10;;;6.20;99.90;;;;;;5117285;28;20203;-47
2022/03/31 02:35:56;;;;;;;20.73;13.07;;;6.20;99.90;;;;;;5117275;28;20265;-47
2022/03/31 02:38:21;;;;;;;20.97;12.90;;;6.20;99.90;;;;;;5117208;28;20165;-50
2022/03/31 02:40:47;;;;;;;18.60;11.80;;;6.20;99.90;;;;;;5116893;28;20203;-49
2022/03/31 02:43:13;;;;;;;20.30;13.27;;;6.20;99.90;;;;;;5117207;28;20234;-48
2022/03/31 02:45:38;;;;;;;22.03;12.43;;;6.20;99.90;;;;;;5116822;28;20237;-49
2022/03/31 02:48:04;;;;;;;18.03;13.27;;;6.20;99.90;;;;;;5116893;28;20250;-47
2022/03/31 02:50:30;;;;;;;20.37;12.90;;;6.10;99.90;;;;;;5116726;28;20185;-48
2022/03/31 02:55:40;;;;;;;19.53;12.37;;;6.10;99.90;;;;;;5115880;28;20582;-49
2022/03/31 02:58:05;;;;;;;17.93;12.43;;;6.10;99.90;;;;;;5116789;28;20178;-48
2022/03/31 03:00:34;;;;;;;19.47;13.90;;;6.10;99.90;;;;;;5116711;28;20587;-47
2022/03/31 03:03:02;;;;;;;17.13;13.07;;;6.10;99.90;;;;;;5116418;28;20176;-48
2022/03/31 03:05:27;;;;;;;20.23;13.57;;;6.10;99.90;;;;;;5116297;28;20284;-47
2022/03/31 03:07:53;;;;;;;18.83;12.07;;;6.00;99.90;;;;;;5116421;28;20265;-48
2022/03/31 03:10:19;;;;;;;20.10;12.30;;;6.10;99.90;;;;;;5117334;28;20200;-46
2022/03/31 03:12:44;;;;;;;17.20;12.63;;;6.00;99.90;;;;;;5116110;28;20218;-48
2022/03/31 03:15:11;;;;;;;23.97;13.30;;;6.10;99.90;;;;;;5116233;28;20186;-48
2022/03/31 03:17:45;;;;;;;18.40;13.47;;;6.00;99.90;;;;;;5116397;28;20185;-48
2022/03/31 03:20:13;;;;;;;21.27;14.10;;;6.00;99.90;;;;;;5116161;28;20162;-49
2022/03/31 03:22:41;;;;;;;20.80;14.30;;;6.00;99.90;;;;;;5116486;28;20216;-48
2022/03/31 03:25:07;;;;;;;17.57;12.97;;;6.00;99.90;;;;;;5116295;28;20184;-48
2022/03/31 03:27:33;;;;;;;20.33;13.37;;;6.00;99.90;;;;;;5116251;28;20176;-47
2022/03/31 03:29:59;;;;;;;19.37;13.77;;;6.00;99.90;;;;;;5116025;28;20235;-49
2022/03/31 03:32:24;;;;;;;20.43;13.57;;;6.00;99.90;;;;;;5115857;28;20210;-48
2022/03/31 03:34:50;;;;;;;20.07;13.80;;;6.10;99.90;;;;;;5116734;28;20688;-47
2022/03/31 03:37:15;;;;;;;17.10;13.03;;;6.10;99.90;;;;;;5116103;28;20596;-47
2022/03/31 03:39:41;;;;;;;21.37;14.67;;;6.10;99.90;;;;;;5116076;28;20257;-47
2022/03/31 03:42:07;;;;;;;19.60;14.13;;;6.00;99.90;;;;;;5115711;28;20189;-47
2022/03/31 03:44:35;;;;;;;25.43;15.13;;;6.00;99.90;;;;;;5115729;28;20323;-46
2022/03/31 03:47:00;;;;;;;20.73;14.10;;;6.00;99.90;;;;;;5115553;28;20702;-48
2022/03/31 03:49:26;;;;;;;18.83;14.00;;;6.10;99.90;;;;;;5115881;28;20269;-48
2022/03/31 03:51:52;;;;;;;25.00;16.23;;;6.10;99.90;;;;;;5115710;28;20170;-47
2022/03/31 03:54:17;;;;;;;24.03;15.97;;;6.00;99.90;;;;;;5115627;28;20177;-48
2022/03/31 03:56:43;;;;;;;24.23;16.23;;;6.00;99.90;;;;;;5115408;28;20203;-48
2022/03/31 03:59:09;;;;;;;20.27;14.80;;;6.10;99.90;;;;;;5115379;28;20186;-48
2022/03/31 04:01:34;;;;;;;24.03;16.53;;;6.10;99.90;;;;;;5115460;28;20566;-46
2022/03/31 04:04:00;;;;;;;20.83;14.77;;;6.10;99.90;;;;;;5115588;28;20242;-48
2022/03/31 04:06:25;;;;;;;24.17;15.20;;;6.10;99.90;;;;;;5114833;28;20205;-49
2022/03/31 04:08:51;;;;;;;24.10;15.27;;;6.00;99.90;;;;;;5115275;28;20614;-44
2022/03/31 04:11:16;;;;;;;24.93;15.77;;;6.10;99.90;;;;;;5115080;28;20203;-43
2022/03/31 04:13:42;;;;;;;21.57;14.60;;;6.10;99.90;;;;;;5115071;28;20254;-43
2022/03/31 04:16:08;;;;;;;23.33;15.57;;;6.10;99.90;;;;;;5115272;28;20251;-42
2022/03/31 04:18:33;;;;;;;25.83;15.80;;;6.10;99.90;;;;;;5096905;28;20609;-43
2022/03/31 04:21:02;;;;;;;27.23;17.57;;;6.10;99.90;;;;;;5114857;28;20267;-43
2022/03/31 04:23:27;;;;;;;22.93;16.03;;;6.10;99.90;;;;;;5115193;28;20233;-43
2022/03/31 04:25:53;;;;;;;25.43;16.30;;;6.10;99.90;;;;;;5114864;28;20208;-43
2022/03/31 04:28:19;;;;;;;23.27;14.57;;;6.10;99.90;;;;;;5096666;28;20223;-42
2022/03/31 04:30:44;;;;;;;28.23;16.00;;;6.10;99.90;;;;;;5114798;28;20193;-43
2022/03/31 04:33:10;;;;;;;24.23;15.17;;;6.10;99.90;;;;;;5115236;28;20202;-42
2022/03/31 04:35:36;;;;;;;28.37;15.57;;;6.10;99.90;;;;;;5115248;28;20320;-44
2022/03/31 04:38:02;;;;;;;31.13;16.73;;;6.10;99.90;;;;;;5115346;28;20175;-43
2022/03/31 04:40:28;;;;;;;32.50;16.13;;;6.10;99.90;;;;;;5114580;28;20518;-43
2022/03/31 04:42:54;;;;;;;25.67;15.53;;;6.10;99.90;;;;;;5115199;28;20198;-44
2022/03/31 04:45:20;;;;;;;22.93;15.87;;;6.10;99.90;;;;;;5114335;28;20202;-44
2022/03/31 04:47:45;;;;;;;20.60;14.63;;;6.10;99.90;;;;;;5114589;28;20238;-43
2022/03/31 04:50:12;;;;;;;24.00;15.23;;;6.10;99.90;;;;;;5114262;28;20184;-42
2022/03/31 04:52:38;;;;;;;24.20;15.00;;;6.10;99.90;;;;;;5114482;28;20220;-45
2022/03/31 04:55:04;;;;;;;24.97;15.27;;;6.10;99.90;;;;;;5114721;28;20173;-44
2022/03/31 04:57:31;;;;;;;23.53;15.67;;;6.10;99.90;;;;;;5114233;28;20186;-42
2022/03/31 04:59:56;;;;;;;32.97;17.10;;;6.10;99.90;;;;;;5114166;28;20180;-44
2022/03/31 05:02:22;;;;;;;30.17;16.73;;;6.10;99.90;;;;;;5095835;28;20180;-45
2022/03/31 05:04:47;;;;;;;28.63;17.23;;;6.10;99.90;;;;;;5114351;28;20177;-41
2022/03/31 05:07:13;;;;;;;24.83;16.03;;;6.10;99.90;;;;;;5114003;28;20247;-44
2022/03/31 05:09:39;;;;;;;26.00;16.37;;;6.10;99.90;;;;;;5114052;28;20184;-44
2022/03/31 05:12:06;;;;;;;28.73;16.47;;;6.10;99.90;;;;;;5113703;28;20224;-44
2022/03/31 05:14:32;;;;;;;29.30;16.63;;;6.10;99.90;;;;;;5114505;28;20192;-42
2022/03/31 05:16:58;;;;;;;32.53;17.27;;;6.10;99.90;;;;;;5114443;28;20560;-43
2022/03/31 05:19:24;;;;;;;32.27;18.13;;;6.10;99.90;;;;;;5113997;28;20257;-44
2022/03/31 05:21:49;;;;;;;28.80;17.23;;;6.10;99.90;;;;;;5113863;28;20654;-44
2022/03/31 05:24:15;;;;;;;28.67;17.87;;;6.10;99.90;;;;;;5095615;28;20207;-43
2022/03/31 05:26:41;;;;;;;24.70;16.40;;;6.10;99.90;;;;;;5113975;28;20202;-43
2022/03/31 05:29:08;;;;;;;30.37;17.70;;;6.10;99.90;;;;;;5113766;28;20161;-43
2022/03/31 05:31:33;;;;;;;24.40;15.93;;;6.20;99.90;;;;;;5114203;28;20674;-47
2022/03/31 05:33:59;;;;;;;26.93;16.07;;;6.10;99.90;;;;;;5115225;28;20235;-47
2022/03/31 05:36:24;;;;;;;26.23;16.27;;;6.10;99.90;;;;;;5114691;28;20263;-47
2022/03/31 05:38:50;;;;;;;29.77;17.30;;;6.10;99.90;;;;;;5096319;28;20621;-48
2022/03/31 05:41:16;;;;;;;26.90;16.53;;;6.10;99.90;;;;;;5115054;28;20177;-41
2022/03/31 05:43:41;;;;;;;25.37;16.13;;;6.10;99.90;;;;;;5114185;28;20179;-43
2022/03/31 05:46:07;;;;;;;26.90;16.03;;;6.10;99.90;;;;;;5114502;28;20634;-42
2022/03/31 05:48:33;;;;;;;27.23;15.47;;;6.10;99.90;;;;;;5095895;28;20184;-43
2022/03/31 05:50:58;;;;;;;23.07;15.77;;;6.10;99.90;;;;;;5114344;28;20543;-45
2022/03/31 05:53:24;;;;;;;27.80;16.03;;;6.00;99.90;;;;;;5114155;28;20196;-43
2022/03/31 05:55:49;;;;;;;24.63;14.33;;;6.00;99.90;;;;;;5114367;28;20329;-42
2022/03/31 05:58:15;;;;;;;25.13;15.10;;;6.00;99.90;;;;;;5114311;28;20177;-40
2022/03/31 06:00:41;;;;;;;22.70;15.03;;;6.00;99.90;;;;;;5114492;28;20638;-42
2022/03/31 06:03:06;;;;;;;25.67;15.43;;;6.00;99.90;;;;;;5113985;28;20591;-41
2022/03/31 06:05:32;;;;;;;28.33;15.80;;;6.00;99.90;;;;;;5095710;28;20258;-42
2022/03/31 06:07:58;;;;;;;26.17;15.43;;;6.00;99.90;;;;;;5114163;28;20170;-42
2022/03/31 06:10:24;;;;;;;27.00;15.00;;;6.00;99.90;;;;;;5114334;28;20175;-42
2022/03/31 06:12:50;;;;;;;29.13;14.97;;;6.00;99.90;;;;;;5113619;28;20223;-42
2022/03/31 06:15:17;;;;;;;29.03;15.63;;;6.00;99.90;;;;;;5114012;28;20276;-43
2022/03/31 06:17:44;;;;;;;27.70;16.20;;;6.00;99.90;;;;;;5113608;28;20184;-44
2022/03/31 06:20:11;;;;;;;26.87;16.33;;;6.10;99.90;;;;;;5113569;28;20190;-45
2022/03/31 06:22:37;;;;;;;31.87;17.17;;;6.10;99.90;;;;;;5113328;28;20180;-42
2022/03/31 06:25:06;;;;;;;28.83;16.47;;;6.10;99.90;;;;;;5113962;28;20191;-43
2022/03/31 06:27:35;;;;;;;29.30;16.83;;;6.10;99.90;;;;;;5114136;28;20194;-42
2022/03/31 06:30:00;;;;;;;29.33;17.80;;;6.10;99.90;;;;;;5116987;28;20168;-45
2022/03/31 06:32:26;;;;;;;27.70;16.87;;;6.10;99.90;;;;;;5117448;28;20540;-45
2022/03/31 06:34:51;;;;;;;28.10;17.23;;;6.10;99.90;;;;;;5117195;28;20183;-43
2022/03/31 06:37:19;;;;;;;32.03;17.57;;;6.10;99.90;;;;;;5117094;28;20194;-43
2022/03/31 06:39:45;;;;;;;28.00;18.70;;;6.10;99.90;;;;;;5117362;28;20176;-43
2022/03/31 06:42:10;;;;;;;27.90;17.60;;;6.10;99.90;;;;;;5117492;28;20689;-42
2022/03/31 06:44:36;;;;;;;25.43;16.23;;;6.10;99.90;;;;;;5116717;28;20187;-43
2022/03/31 06:47:02;;;;;;;27.60;17.47;;;6.10;99.90;;;;;;5116916;28;20223;-44
2022/03/31 06:49:28;;;;;;;33.10;17.87;;;6.10;99.90;;;;;;5117021;28;20188;-44
2022/03/31 06:51:55;;;;;;;28.87;17.10;;;6.10;99.90;;;;;;5116880;28;20214;-43
2022/03/31 06:54:20;;;;;;;30.37;18.63;;;6.10;99.90;;;;;;5116882;28;20191;-43
2022/03/31 06:56:49;;;;;;;32.67;17.23;;;6.10;99.90;;;;;;5116564;28;20200;-44
2022/03/31 06:59:15;;;;;;;28.97;18.53;;;6.10;99.90;;;;;;5116823;28;20173;-43
2022/03/31 07:01:41;;;;;;;31.70;18.30;;;6.20;99.90;;;;;;5116512;28;20229;-43
2022/03/31 07:04:07;;;;;;;28.23;17.67;;;6.20;99.90;;;;;;5116534;28;20179;-43
2022/03/31 07:06:34;;;;;;;32.37;17.40;;;6.20;99.90;;;;;;5116633;28;20196;-45
2022/03/31 07:09:00;;;;;;;27.40;17.97;;;6.20;99.90;;;;;;5116394;28;20238;-44
2022/03/31 07:11:25;;;;;;;29.67;16.53;;;6.20;99.90;;;;;;5116443;28;20189;-43
2022/03/31 07:13:52;;;;;;;24.03;16.00;;;6.20;99.90;;;;;;5117334;28;20275;-44
2022/03/31 07:16:18;;;;;;;27.43;17.30;;;6.20;99.90;;;;;;5116115;28;20193;-43
2022/03/31 07:18:44;;;;;;;26.97;17.13;;;6.10;99.90;;;;;;5116099;28;20182;-45
2022/03/31 07:21:09;;;;;;;29.70;16.93;;;6.10;99.90;;;;;;5116131;28;20169;-43
2022/03/31 07:23:35;;;;;;;27.43;17.13;;;6.10;99.90;;;;;;5116091;28;20562;-44
2022/03/31 07:26:01;;;;;;;29.83;17.73;;;6.10;99.90;;;;;;5116235;28;20201;-43
2022/03/31 07:28:26;;;;;;;26.87;17.03;;;6.10;99.90;;;;;;5116034;28;20709;-43
2022/03/31 07:30:53;;;;;;;36.33;18.37;;;6.10;99.90;;;;;;5116239;28;20214;-44
2022/03/31 07:33:20;;;;;;;31.53;19.20;;;6.10;99.90;;;;;;5115914;28;20333;-42
2022/03/31 07:35:48;;;;;;;26.87;16.37;;;6.10;99.90;;;;;;5116040;28;20193;-44
2022/03/31 07:38:14;;;;;;;26.20;18.10;;;6.10;99.90;;;;;;5115714;28;20655;-43
2022/03/31 07:40:40;;;;;;;28.43;16.30;;;6.20;99.90;;;;;;5115465;28;20168;-43
2022/03/31 07:43:06;;;;;;;27.13;17.17;;;6.20;99.90;;;;;;5116357;28;20523;-43
2022/03/31 07:45:36;;;;;;;25.77;16.97;;;6.20;99.90;;;;;;5115642;28;20208;-43
2022/03/31 07:48:05;;;;;;;31.10;19.00;;;6.30;99.90;;;;;;5115865;28;20578;-43
2022/03/31 07:50:33;;;;;;;24.47;17.07;;;6.30;99.90;;;;;;5115739;28;20172;-44
2022/03/31 07:52:58;;;;;;;27.70;17.27;;;6.20;99.90;;;;;;5115408;28;20287;-44
2022/03/31 07:55:24;;;;;;;27.13;16.23;;;6.30;99.90;;;;;;5115414;28;20600;-42
2022/03/31 07:57:51;;;;;;;26.43;17.33;;;6.30;99.90;;;;;;5115735;28;20225;-42
2022/03/31 08:00:18;;;;;;;27.23;17.07;;;6.30;99.90;;;;;;5115603;28;20167;-43
2022/03/31 08:02:46;;;;;;;25.43;16.17;;;6.40;99.90;;;;;;5097365;28;20179;-44
2022/03/31 08:05:16;;;;;;;27.47;17.90;;;6.30;99.90;;;;;;5116778;28;20176;-42
2022/03/31 08:07:41;;;;;;;31.67;18.40;;;6.30;99.90;;;;;;5116365;28;20207;-42
2022/03/31 08:10:08;;;;;;;33.30;18.57;;;6.30;99.90;;;;;;5115837;28;20208;-43
2022/03/31 08:12:34;;;;;;;28.27;17.83;;;6.30;99.90;;;;;;5114850;28;20212;-42
2022/03/31 08:15:00;;;;;;;28.33;17.80;;;6.30;99.90;;;;;;5115112;28;20188;-41
2022/03/31 08:17:26;;;;;;;29.70;18.80;;;6.40;99.90;;;;;;5115333;28;20172;-43
2022/03/31 08:19:52;;;;;;;26.30;17.33;;;6.30;99.90;;;;;;5114952;28;20648;-43
2022/03/31 08:22:18;;;;;;;29.03;17.67;;;6.30;99.90;;;;;;5114919;28;20191;-42
2022/03/31 08:24:44;;;;;;;28.37;18.53;;;6.40;99.90;;;;;;5115067;28;20234;-42
2022/03/31 08:27:10;;;;;;;30.20;17.83;;;6.30;99.90;;;;;;5115545;28;20296;-45
2022/03/31 08:29:37;;;;;;;30.43;17.67;;;6.40;99.90;;;;;;5115044;28;20693;-42
2022/03/31 08:32:04;;;;;;;24.53;15.80;;;6.40;99.90;;;;;;5114838;28;20277;-44
2022/03/31 08:34:29;;;;;;;23.73;15.53;;;6.40;99.90;;;;;;5114955;28;20579;-44
2022/03/31 08:36:55;;;;;;;26.53;15.20;;;6.50;99.90;;;;;;5114924;28;20217;-43
2022/03/31 08:39:21;;;;;;;23.00;14.37;;;6.60;99.90;;;;;;5115108;28;20559;-43
2022/03/31 08:41:47;;;;;;;21.83;13.70;;;6.60;99.90;;;;;;5115457;28;20643;-41
2022/03/31 08:44:14;;;;;;;19.00;12.93;;;6.60;99.90;;;;;;5114849;28;20177;-42
2022/03/31 08:46:40;;;;;;;20.40;13.07;;;6.70;99.90;;;;;;5114708;28;20206;-42
2022/03/31 08:49:08;;;;;;;19.23;12.60;;;6.70;99.90;;;;;;5114866;28;20185;-42
2022/03/31 08:51:34;;;;;;;20.43;13.40;;;6.70;99.90;;;;;;5115049;28;20193;-42
2022/03/31 08:54:00;;;;;;;19.63;13.20;;;6.70;99.90;;;;;;5114652;28;20202;-43
2022/03/31 08:56:26;;;;;;;18.90;13.07;;;6.80;99.90;;;;;;5114596;28;20188;-43
2022/03/31 08:58:52;;;;;;;22.00;13.63;;;6.80;99.90;;;;;;5114666;28;20166;-43
2022/03/31 09:01:18;;;;;;;24.70;14.77;;;6.80;99.90;;;;;;5114802;28;20703;-42
2022/03/31 09:03:44;;;;;;;31.90;19.77;;;6.80;99.90;;;;;;5114757;28;20187;-42
2022/03/31 09:06:23;;;;;;;34.87;21.80;;;6.80;99.90;;;;;;5114797;28;20200;-42
2022/03/31 09:08:55;;;;;;;32.50;19.90;;;6.70;99.90;;;;;;5114553;28;20237;-43
2022/03/31 09:11:31;;;;;;;35.60;22.27;;;6.60;99.90;;;;;;5114754;28;20212;-42
2022/03/31 09:14:00;;;;;;;33.73;21.50;;;6.50;99.90;;;;;;5114841;28;20279;-41
2022/03/31 09:16:36;;;;;;;35.90;22.00;;;6.30;99.90;;;;;;5114204;28;20193;-42
2022/03/31 09:19:04;;;;;;;34.13;21.40;;;6.20;99.90;;;;;;5114562;28;20161;-43
2022/03/31 09:21:31;;;;;;;36.63;21.63;;;6.20;99.90;;;;;;5114649;28;20261;-42
2022/03/31 09:23:57;;;;;;;35.10;21.17;;;6.10;99.90;;;;;;5114204;28;20184;-42
2022/03/31 09:26:27;;;;;;;34.20;21.97;;;6.10;99.90;;;;;;5114053;28;20219;-42
2022/03/31 09:28:54;;;;;;;37.33;21.60;;;6.10;99.90;;;;;;5114954;28;20573;-44
2022/03/31 09:31:24;;;;;;;33.63;21.47;;;6.00;99.90;;;;;;5114338;28;20177;-42
2022/03/31 09:33:56;;;;;;;35.13;22.40;;;6.00;99.90;;;;;;5114117;28;20193;-44
2022/03/31 09:36:23;;;;;;;33.90;22.20;;;6.00;99.90;;;;;;5114658;28;20547;-44
2022/03/31 09:38:58;;;;;;;36.13;22.53;;;6.00;99.90;;;;;;5114306;28;20175;-43
2022/03/31 09:41:31;;;;;;;36.23;23.07;;;6.00;99.90;;;;;;5115037;28;20173;-43
2022/03/31 09:44:00;;;;;;;37.10;23.27;;;6.00;99.90;;;;;;5114386;28;20175;-44
2022/03/31 09:46:33;;;;;;;38.60;25.07;;;6.00;99.90;;;;;;5114897;28;20209;-44
2022/03/31 09:49:11;;;;;;;36.20;24.03;;;5.90;99.90;;;;;;5114887;28;20157;-44
2022/03/31 09:51:37;;;;;;;38.27;25.97;;;6.00;99.90;;;;;;5115873;28;20161;-45
2022/03/31 09:54:04;;;;;;;49.13;28.60;;;6.00;99.90;;;;;;5117015;28;20204;-43
2022/03/31 09:56:34;;;;;;;35.10;24.63;;;6.00;99.90;;;;;;5117769;28;20197;-43
2022/03/31 09:59:02;;;;;;;38.17;25.77;;;5.90;99.90;;;;;;5114323;28;20162;-43
2022/03/31 10:01:29;;;;;;;38.60;26.20;;;6.00;99.90;;;;;;5114026;28;20177;-40
2022/03/31 10:03:56;;;;;;;37.30;24.33;;;5.90;99.90;;;;;;5116292;28;20178;-41
2022/03/31 10:06:24;;;;;;;34.80;23.40;;;5.90;99.90;;;;;;5118049;28;20677;-44
2022/03/31 10:08:50;;;;;;;37.63;24.60;;;6.00;99.90;;;;;;5117719;28;20182;-42
2022/03/31 10:11:21;;;;;;;36.40;24.07;;;5.90;99.90;;;;;;5117481;28;20235;-41
2022/03/31 10:14:03;;;;;;;37.80;25.30;;;5.90;99.90;;;;;;5117812;28;20225;-43
2022/03/31 10:16:36;;;;;;;35.37;22.33;;;5.90;99.90;;;;;;5099486;28;20598;-42
2022/03/31 10:19:03;;;;;;;33.13;21.70;;;5.90;99.90;;;;;;5117603;28;20192;-43
2022/03/31 10:21:30;;;;;;;36.67;24.20;;;5.80;99.90;;;;;;5117577;28;20177;-43
2022/03/31 10:26:41;;;;;;;42.33;23.57;;;5.80;99.90;;;;;;5117538;28;20258;-43
2022/03/31 10:29:15;;;;;;;36.43;23.17;;;5.80;99.90;;;;;;5117490;28;20614;-42
2022/03/31 10:31:45;;;;;;;39.73;24.10;;;5.70;99.90;;;;;;5117157;28;20185;-43
2022/03/31 10:34:14;;;;;;;34.00;22.07;;;5.70;99.90;;;;;;5117382;28;20192;-41
2022/03/31 10:36:47;;;;;;;33.00;23.17;;;5.70;99.90;;;;;;5117263;28;20212;-44
2022/03/31 10:39:24;;;;;;;35.73;19.70;;;5.70;99.90;;;;;;5117291;28;20165;-41
2022/03/31 10:42:05;;;;;;;32.97;21.60;;;5.60;99.90;;;;;;5116918;28;20244;-42
2022/03/31 10:44:31;;;;;;;39.40;20.60;;;5.60;99.90;;;;;;5117322;28;20172;-43
2022/03/31 10:47:05;;;;;;;30.30;18.47;;;5.60;99.90;;;;;;5116841;28;20197;-42
2022/03/31 10:49:33;;;;;;;31.53;19.77;;;5.50;99.90;;;;;;5117142;28;20175;-41
2022/03/31 10:52:10;;;;;;;31.50;19.40;;;5.50;99.90;;;;;;5116883;28;20306;-42
2022/03/31 10:54:35;;;;;;;36.47;20.23;;;5.50;99.90;;;;;;5117011;28;20248;-42
2022/03/31 10:57:12;;;;;;;32.57;19.67;;;5.50;99.90;;;;;;5116568;28;20266;-43
2022/03/31 10:59:39;;;;;;;32.57;21.10;;;5.50;99.90;;;;;;5116662;28;20172;-44
2022/03/31 11:02:12;;;;;;;33.07;21.13;;;5.40;99.90;;;;;;5117827;28;20216;-42
2022/03/31 11:04:53;;;;;;;33.13;20.13;;;5.50;99.90;;;;;;5118089;28;20157;-44
2022/03/31 11:07:20;;;;;;;29.73;18.50;;;5.40;99.90;;;;;;5117473;28;20279;-44
2022/03/31 11:09:47;;;;;;;27.30;18.70;;;5.40;99.90;;;;;;5116545;28;20565;-42
2022/03/31 11:12:28;;;;;;;27.90;17.53;;;5.40;99.90;;;;;;5116261;28;20548;-44
2022/03/31 11:15:03;;;;;;;28.97;17.27;;;5.30;99.90;;;;;;5115466;28;20237;-42
2022/03/31 11:17:30;;;;;;;28.87;18.23;;;5.30;99.90;;;;;;5116896;28;20204;-43
2022/03/31 11:19:57;;;;;;;30.50;16.90;;;5.30;99.90;;;;;;5116256;28;20656;-42
2022/03/31 11:22:28;;;;;;;27.43;16.53;;;5.40;99.90;;;;;;5116436;28;20490;-43
2022/03/31 11:25:06;;;;;;;24.03;15.10;;;5.30;99.90;;;;;;5116432;28;20551;-43
2022/03/31 11:27:36;;;;;;;27.87;16.57;;;5.30;99.90;;;;;;5116704;28;20165;-43
2022/03/31 11:30:05;;;;;;;27.90;14.57;;;5.30;99.90;;;;;;5116012;28;20169;-43
2022/03/31 11:32:34;;;;;;;20.20;12.97;;;5.30;99.90;;;;;;5115811;28;20694;-42
2022/03/31 11:35:01;;;;;;;21.30;14.50;;;5.30;99.90;;;;;;5116196;28;20647;-44
2022/03/31 11:37:27;;;;;;;21.13;13.60;;;5.20;99.90;;;;;;5116015;28;20195;-45
2022/03/31 11:39:53;;;;;;;18.77;12.17;;;5.20;99.90;;;;;;5116231;28;20216;-45
2022/03/31 11:42:19;;;;;;;19.70;11.90;;;5.20;99.90;;;;;;5116259;28;20280;-44
2022/03/31 11:44:44;;;;;;;17.93;10.27;;;5.10;99.90;;;;;;5116050;28;20185;-45
2022/03/31 11:47:21;;;;;;;15.27;10.97;;;5.10;99.90;;;;;;5116064;28;20201;-42
2022/03/31 11:50:04;;;;;;;13.97;10.00;;;5.10;99.90;;;;;;5116213;28;20227;-45
2022/03/31 11:52:33;;;;;;;14.53;9.53;;;5.10;99.90;;;;;;5116546;28;20217;-44
2022/03/31 11:55:02;;;;;;;17.33;9.10;;;5.10;99.90;;;;;;5116356;28;20181;-43
2022/03/31 11:57:28;;;;;;;11.33;7.97;;;5.10;99.90;;;;;;5116261;28;20528;-44
2022/03/31 11:59:55;;;;;;;12.10;8.00;;;5.00;99.90;;;;;;5115935;28;20180;-45
2022/03/31 12:02:21;;;;;;;10.60;7.93;;;5.00;99.90;;;;;;5115521;28;20265;-44
2022/03/31 12:04:48;;;;;;;11.57;8.07;;;5.00;99.90;;;;;;5116473;28;20260;-44
2022/03/31 12:07:14;;;;;;;10.33;7.63;;;5.00;99.90;;;;;;5116509;28;20207;-42
2022/03/31 12:09:41;;;;;;;10.30;8.13;;;5.00;99.90;;;;;;5116739;28;20188;-43
2022/03/31 12:12:11;;;;;;;11.17;7.30;;;5.00;99.90;;;;;;5116746;28;20282;-43
2022/03/31 12:14:38;;;;;;;8.90;7.13;;;5.00;99.90;;;;;;5118947;28;20183;-44
2022/03/31 12:17:05;;;;;;;11.17;6.50;;;5.10;99.90;;;;;;5118474;28;20208;-44
2022/03/31 12:19:41;;;;;;;9.03;6.77;;;5.00;99.90;;;;;;5116266;28;20189;-43
2022/03/31 12:22:07;;;;;;;8.40;6.70;;;5.10;99.90;;;;;;5115426;28;20233;-41
2022/03/31 12:24:33;;;;;;;9.30;6.63;;;5.00;99.90;;;;;;5115154;28;20184;-43
2022/03/31 12:27:01;;;;;;;8.13;6.00;;;5.10;99.90;;;;;;5114727;28;20218;-43
2022/03/31 12:29:31;;;;;;;7.57;6.17;;;5.10;99.90;;;;;;5115111;28;20259;-45
2022/03/31 12:32:08;;;;;;;9.03;6.33;;;5.10;99.90;;;;;;5115191;28;20169;-43
2022/03/31 12:34:36;;;;;;;7.60;5.83;;;5.00;99.90;;;;;;5115155;28;20279;-43
2022/03/31 12:37:02;;;;;;;7.87;6.20;;;5.00;99.90;;;;;;5114998;28;20223;-41
2022/03/31 12:39:28;;;;;;;8.43;5.87;;;5.00;99.90;;;;;;5114999;28;20231;-43
2022/03/31 12:41:56;;;;;;;9.13;6.53;;;4.90;99.90;;;;;;5114585;28;20192;-41
2022/03/31 12:44:26;;;;;;;8.07;6.03;;;4.90;99.90;;;;;;5114742;28;20184;-44